createdAt,value
2018-05-12T00:01:57.218Z,93597.72
2018-05-12T00:04:24.692Z,93601.80
2018-05-12T00:06:51.076Z,93601.23
2018-05-12T00:09:17.555Z,93596.18
2018-05-12T00:11:44.000Z,93598.66
2018-05-12T00:14:10.412Z,93599.08
2018-05-12T00:16:36.780Z,93600.42
2018-05-12T00:19:03.284Z,93604.08
2018-05-12T00:21:29.706Z,93594.37
2018-05-12T00:23:56.026Z,93594.01
2018-05-12T00:26:22.443Z,93595.50
2018-05-12T00:28:49.935Z,93599.31
2018-05-12T00:31:16.290Z,93605.92
2018-05-12T00:33:42.900Z,93600.34
2018-05-12T00:36:09.348Z,93601.16
2018-05-12T00:38:35.891Z,93608.33
2018-05-12T00:41:02.407Z,93608.41
2018-05-12T00:43:28.835Z,93606.41
2018-05-12T00:45:55.530Z,93609.36
2018-05-12T00:48:26.055Z,93613.12
2018-05-12T00:50:52.835Z,93617.00
2018-05-12T00:53:19.386Z,93617.52
2018-05-12T00:55:46.175Z,93613.30
2018-05-12T00:58:12.716Z,93611.53
2018-05-12T01:00:39.040Z,93610.19
2018-05-12T01:03:05.457Z,93603.69
2018-05-12T01:05:31.880Z,93602.94
2018-05-12T01:07:58.302Z,93609.06
2018-05-12T01:10:24.826Z,93599.53
2018-05-12T01:12:51.323Z,93598.58
2018-05-12T01:15:17.682Z,93604.79
2018-05-12T01:17:44.788Z,93601.23
2018-05-12T01:20:11.254Z,93604.33
2018-05-12T01:22:37.576Z,93605.89
2018-05-12T01:25:03.975Z,93606.91
2018-05-12T01:27:30.329Z,93605.31
2018-05-12T01:29:57.386Z,93612.69
2018-05-12T01:32:23.847Z,93610.73
2018-05-12T01:34:50.205Z,93610.71
2018-05-12T01:37:16.610Z,93607.98
2018-05-12T01:39:43.067Z,93608.11
2018-05-12T01:42:09.436Z,93604.24
2018-05-12T01:44:35.838Z,93595.73
2018-05-12T01:47:02.233Z,93590.80
2018-05-12T01:49:28.640Z,93592.67
2018-05-12T01:51:55.041Z,93594.31
2018-05-12T01:54:21.442Z,93609.61
2018-05-12T01:56:47.853Z,93604.96
2018-05-12T01:59:14.297Z,93603.61
2018-05-12T02:01:40.780Z,93599.72
2018-05-12T02:04:07.235Z,93600.66
2018-05-12T02:06:33.555Z,93589.69
2018-05-12T02:09:00.397Z,93582.97
2018-05-12T02:11:26.818Z,93588.83
2018-05-12T02:13:53.192Z,93588.48
2018-05-12T02:16:19.677Z,93589.36
2018-05-12T02:18:46.063Z,93591.95
2018-05-12T02:21:12.487Z,93581.72
2018-05-12T02:23:38.856Z,93564.02
2018-05-12T02:26:05.212Z,93560.42
2018-05-12T02:28:31.619Z,93566.87
2018-05-12T02:30:58.007Z,93571.28
2018-05-12T02:33:24.323Z,93575.56
2018-05-12T02:35:50.672Z,93587.48
2018-05-12T02:38:17.059Z,93600.62
2018-05-12T02:40:43.372Z,93611.11
2018-05-12T02:43:09.704Z,93617.62
2018-05-12T02:45:36.189Z,93625.36
2018-05-12T02:48:02.616Z,93626.70
2018-05-12T02:50:29.089Z,93622.71
2018-05-12T02:52:55.453Z,93613.33
2018-05-12T02:55:21.799Z,93611.36
2018-05-12T02:57:48.108Z,93608.11
2018-05-12T03:00:15.563Z,93610.81
2018-05-12T03:02:41.931Z,93601.84
2018-05-12T03:05:08.256Z,93603.70
2018-05-12T03:07:34.624Z,93601.66
2018-05-12T03:10:01.005Z,93602.91
2018-05-12T03:12:27.368Z,93596.17
2018-05-12T03:14:53.734Z,93600.39
2018-05-12T03:17:20.058Z,93595.12
2018-05-12T03:19:46.397Z,93605.27
2018-05-12T03:22:12.726Z,93604.94
2018-05-12T03:24:39.332Z,93609.04
2018-05-12T03:27:05.802Z,93609.23
2018-05-12T03:29:32.185Z,93607.41
2018-05-12T03:31:58.504Z,93602.16
2018-05-12T03:34:24.852Z,93596.73
2018-05-12T03:36:51.213Z,93602.05
2018-05-12T03:39:17.594Z,93613.28
2018-05-12T03:41:43.925Z,93612.63
2018-05-12T03:44:10.298Z,93605.34
2018-05-12T03:46:37.007Z,93607.11
2018-05-12T03:49:03.511Z,93610.02
2018-05-12T03:51:29.927Z,93611.45
2018-05-12T03:53:56.399Z,93612.61
2018-05-12T03:56:22.761Z,93623.72
2018-05-12T03:58:49.303Z,93632.38
2018-05-12T04:01:15.644Z,93629.27
2018-05-12T04:03:42.492Z,93625.36
2018-05-12T04:06:21.145Z,93620.11
2018-05-12T04:08:59.815Z,93623.53
2018-05-12T04:11:38.536Z,93625.22
2018-05-12T04:14:04.858Z,93629.19
2018-05-12T04:16:31.232Z,93628.30
2018-05-12T04:18:57.650Z,93632.54
2018-05-12T04:21:23.994Z,93621.67
2018-05-12T04:23:50.368Z,93616.64
2018-05-12T04:26:16.904Z,93614.68
2018-05-12T04:28:43.617Z,93607.23
2018-05-12T04:31:10.324Z,93602.02
2018-05-12T04:33:36.942Z,93603.55
2018-05-12T04:36:03.384Z,93602.65
2018-05-12T04:38:30.009Z,93612.70
2018-05-12T04:40:56.429Z,93613.72
2018-05-12T04:43:22.836Z,93611.69
2018-05-12T04:45:49.188Z,93621.16
2018-05-12T04:48:15.642Z,93626.80
2018-05-12T04:50:43.053Z,93629.19
2018-05-12T04:53:10.592Z,93630.15
2018-05-12T04:55:37.071Z,93627.77
2018-05-12T04:58:03.598Z,93625.79
2018-05-12T05:00:31.179Z,93627.77
2018-05-12T05:02:57.711Z,93630.95
2018-05-12T05:05:24.748Z,93627.97
2018-05-12T05:07:51.533Z,93627.56
2018-05-12T05:10:18.479Z,93627.80
2018-05-12T05:12:45.196Z,93623.66
2018-05-12T05:15:11.919Z,93622.33
2018-05-12T05:17:38.542Z,93624.96
2018-05-12T05:20:06.839Z,93627.61
2018-05-12T05:22:33.941Z,93622.31
2018-05-12T05:25:00.637Z,93622.54
2018-05-12T05:27:27.108Z,93622.31
2018-05-12T05:29:55.955Z,93621.02
2018-05-12T05:32:23.085Z,93613.50
2018-05-12T05:34:49.940Z,93618.11
2018-05-12T05:37:16.858Z,93615.43
2018-05-12T05:39:44.030Z,93612.33
2018-05-12T05:42:11.057Z,93617.80
2018-05-12T05:44:38.633Z,93629.99
2018-05-12T05:47:05.626Z,93632.20
2018-05-12T05:49:32.551Z,93630.16
2018-05-12T05:51:59.200Z,93633.22
2018-05-12T05:54:26.011Z,93636.78
2018-05-12T05:56:52.442Z,93628.74
2018-05-12T05:59:19.856Z,93617.34
2018-05-12T06:01:46.563Z,93610.72
2018-05-12T06:04:13.534Z,93596.86
2018-05-12T06:06:40.552Z,93601.72
2018-05-12T06:09:07.647Z,93607.88
2018-05-12T06:11:35.062Z,93618.74
2018-05-12T06:14:02.128Z,93608.31
2018-05-12T06:16:28.712Z,93591.00
2018-05-12T06:18:55.178Z,93590.62
2018-05-12T06:21:21.532Z,93592.42
2018-05-12T06:23:47.929Z,93592.14
2018-05-12T06:26:14.328Z,93600.55
2018-05-12T06:28:41.382Z,93604.72
2018-05-12T06:31:10.909Z,93602.83
2018-05-12T06:33:37.345Z,93613.92
2018-05-12T06:36:04.642Z,93610.64
2018-05-12T06:38:31.458Z,93611.73
2018-05-12T06:40:58.914Z,93603.52
2018-05-12T06:43:25.337Z,93606.17
2018-05-12T06:45:52.696Z,93602.98
2018-05-12T06:48:19.185Z,93604.02
2018-05-12T06:50:49.883Z,93593.83
2018-05-12T06:53:16.246Z,93586.67
2018-05-12T06:55:42.607Z,93592.37
2018-05-12T06:58:08.968Z,93590.83
2018-05-12T07:00:38.339Z,93597.85
2018-05-12T07:03:04.723Z,93593.20
2018-05-12T07:05:31.081Z,93593.28
2018-05-12T07:07:57.410Z,93596.52
2018-05-12T07:10:24.935Z,93596.42
2018-05-12T07:12:51.489Z,93593.91
2018-05-12T07:15:17.899Z,93589.19
2018-05-12T07:17:45.252Z,93587.93
2018-05-12T07:20:13.703Z,93580.17
2018-05-12T07:22:40.135Z,93574.67
2018-05-12T07:25:06.587Z,93577.50
2018-05-12T07:27:33.074Z,93567.95
2018-05-12T07:29:59.655Z,93567.00
2018-05-12T07:32:26.125Z,93570.65
2018-05-12T07:34:52.660Z,93566.28
2018-05-12T07:37:19.053Z,93571.78
2018-05-12T07:39:46.888Z,93566.95
2018-05-12T07:42:13.357Z,93572.12
2018-05-12T07:44:39.801Z,93571.13
2018-05-12T07:47:06.241Z,93573.98
2018-05-12T07:49:32.759Z,93570.86
2018-05-12T07:51:59.122Z,93573.05
2018-05-12T07:54:25.543Z,93572.41
2018-05-12T07:56:52.379Z,93573.44
2018-05-12T07:59:19.530Z,93559.69
2018-05-12T08:01:46.077Z,93558.69
2018-05-12T08:04:13.099Z,93560.20
2018-05-12T08:06:39.705Z,93557.36
2018-05-12T08:09:06.660Z,93559.04
2018-05-12T08:11:34.256Z,93557.09
2018-05-12T08:14:01.143Z,93554.70
2018-05-12T08:16:28.291Z,93556.90
2018-05-12T08:18:55.531Z,93557.24
2018-05-12T08:21:21.956Z,93542.41
2018-05-12T08:23:48.810Z,93553.91
2018-05-12T08:26:15.317Z,93535.72
2018-05-12T08:28:41.684Z,93545.87
2018-05-12T08:31:11.450Z,93541.78
2018-05-12T08:33:38.593Z,93541.45
2018-05-12T08:36:06.831Z,93542.08
2018-05-12T08:38:33.958Z,93542.84
2018-05-12T08:41:02.581Z,93544.61
2018-05-12T08:43:31.480Z,93538.13
2018-05-12T08:45:59.151Z,93537.05
2018-05-12T08:48:26.054Z,93535.38
2018-05-12T08:50:54.440Z,93533.41
2018-05-12T08:53:21.020Z,93529.05
2018-05-12T08:55:47.984Z,93524.63
2018-05-12T08:58:14.488Z,93528.02
2018-05-12T09:00:42.509Z,93526.86
2018-05-12T09:03:09.482Z,93533.88
2018-05-12T09:05:36.002Z,93525.50
2018-05-12T09:08:02.587Z,93529.22
2018-05-12T09:10:29.483Z,93518.94
2018-05-12T09:12:56.072Z,93520.79
2018-05-12T09:15:22.638Z,93518.75
2018-05-12T09:17:49.246Z,93520.22
2018-05-12T09:20:15.883Z,93518.05
2018-05-12T09:22:42.692Z,93513.80
2018-05-12T09:25:09.448Z,93510.67
2018-05-12T09:27:36.296Z,93504.78
2018-05-12T09:30:03.378Z,93502.53
2018-05-12T09:32:30.637Z,93494.48
2018-05-12T09:34:57.679Z,93487.64
2018-05-12T09:37:26.445Z,93492.30
2018-05-12T09:39:53.247Z,93493.25
2018-05-12T09:42:20.509Z,93486.58
2018-05-12T09:44:48.272Z,93479.11
2018-05-12T09:47:15.021Z,93474.43
2018-05-12T09:49:41.884Z,93476.34
2018-05-12T09:52:09.078Z,93476.64
2018-05-12T09:54:35.745Z,93469.67
2018-05-12T09:57:02.335Z,93460.84
2018-05-12T09:59:28.985Z,93467.55
2018-05-12T10:01:55.457Z,93463.52
2018-05-12T10:04:22.093Z,93460.34
2018-05-12T10:06:48.718Z,93451.30
2018-05-12T10:09:19.203Z,93450.47
2018-05-12T10:11:45.684Z,93450.11
2018-05-12T10:14:12.071Z,93446.08
2018-05-12T10:16:38.468Z,93448.28
2018-05-12T10:19:05.008Z,93442.56
2018-05-12T10:21:32.008Z,93445.24
2018-05-12T10:23:58.576Z,93433.43
2018-05-12T10:26:26.520Z,93434.31
2018-05-12T10:28:54.200Z,93430.23
2018-05-12T10:31:23.041Z,93428.92
2018-05-12T10:33:49.718Z,93424.55
2018-05-12T10:36:16.415Z,93414.05
2018-05-12T10:38:43.076Z,93410.17
2018-05-12T10:41:09.738Z,93411.66
2018-05-12T10:43:37.238Z,93400.24
2018-05-12T10:46:04.949Z,93386.94
2018-05-12T10:48:32.777Z,93387.98
2018-05-12T10:50:59.866Z,93388.40
2018-05-12T10:53:29.730Z,93386.77
2018-05-12T10:55:57.642Z,93382.33
2018-05-12T10:58:49.044Z,93386.53
2018-05-12T11:01:20.158Z,93374.61
2018-05-12T11:03:46.660Z,93365.00
2018-05-12T11:06:13.037Z,93359.20
2018-05-12T11:08:40.678Z,93359.53
2018-05-12T11:11:07.420Z,93366.52
2018-05-12T11:13:33.984Z,93360.83
2018-05-12T11:16:01.072Z,93355.34
2018-05-12T11:18:27.894Z,93355.05
2018-05-12T11:21:00.922Z,93347.34
2018-05-12T11:23:27.449Z,93343.50
2018-05-12T11:25:53.930Z,93341.55
2018-05-12T11:28:20.604Z,93341.23
2018-05-12T11:30:47.430Z,93340.01
2018-05-12T11:33:14.545Z,93334.95
2018-05-12T11:35:42.296Z,93336.52
2018-05-12T11:38:10.616Z,93335.30
2018-05-12T11:40:40.206Z,93333.70
2018-05-12T11:43:06.871Z,93323.18
2018-05-12T11:45:34.164Z,93322.41
2018-05-12T11:48:01.289Z,93313.66
2018-05-12T11:50:28.715Z,93311.55
2018-05-12T11:52:55.863Z,93316.06
2018-05-12T11:55:22.874Z,93305.62
2018-05-12T11:57:49.602Z,93297.83
2018-05-12T12:00:17.158Z,93291.21
2018-05-12T12:02:44.778Z,93287.88
2018-05-12T12:05:11.865Z,93289.08
2018-05-12T12:07:38.470Z,93282.06
2018-05-12T12:10:04.996Z,93270.87
2018-05-12T12:12:31.579Z,93268.40
2018-05-12T12:14:58.674Z,93275.34
2018-05-12T12:17:25.948Z,93263.40
2018-05-12T12:19:53.597Z,93266.70
2018-05-12T12:22:20.743Z,93267.76
2018-05-12T12:24:47.511Z,93255.73
2018-05-12T12:27:14.110Z,93248.24
2018-05-12T12:29:42.113Z,93247.37
2018-05-12T12:32:09.434Z,93244.58
2018-05-12T12:34:36.988Z,93241.89
2018-05-12T12:37:03.756Z,93233.80
2018-05-12T12:39:31.054Z,93227.11
2018-05-12T12:41:59.045Z,93226.45
2018-05-12T12:44:25.597Z,93207.75
2018-05-12T12:46:52.297Z,93212.62
2018-05-12T12:49:18.904Z,93222.51
2018-05-12T12:51:45.576Z,93218.44
2018-05-12T12:54:12.599Z,93212.96
2018-05-12T12:56:39.739Z,93208.35
2018-05-12T12:59:06.334Z,93212.78
2018-05-12T13:01:34.338Z,93210.62
2018-05-12T13:04:01.615Z,93207.31
2018-05-12T13:06:28.755Z,93206.66
2018-05-12T13:08:55.430Z,93199.23
2018-05-12T13:11:25.848Z,93194.64
2018-05-12T13:13:53.690Z,93194.67
2018-05-12T13:16:21.161Z,93192.42
2018-05-12T13:18:48.240Z,93190.91
2018-05-12T13:21:15.623Z,93197.38
2018-05-12T13:23:43.238Z,93196.98
2018-05-12T13:26:09.942Z,93215.95
2018-05-12T13:28:36.512Z,93216.12
2018-05-12T13:31:03.073Z,93219.68
2018-05-12T13:33:29.912Z,93220.52
2018-05-12T13:35:56.971Z,93224.69
2018-05-12T13:38:23.864Z,93222.28
2018-05-12T13:40:51.582Z,93227.66
2018-05-12T13:43:19.178Z,93221.95
2018-05-12T13:45:46.423Z,93223.45
2018-05-12T13:48:13.076Z,93220.88
2018-05-12T13:50:40.345Z,93227.47
2018-05-12T13:53:07.115Z,93228.13
2018-05-12T13:55:34.578Z,93223.92
2018-05-12T13:58:01.431Z,93220.38
2018-05-12T14:00:28.147Z,93214.02
2018-05-12T14:02:54.755Z,93219.08
2018-05-12T14:05:21.560Z,93218.16
2018-05-12T14:07:49.338Z,93221.38
2018-05-12T14:10:15.894Z,93224.36
2018-05-12T14:12:42.871Z,93214.70
2018-05-12T14:15:09.397Z,93217.63
2018-05-12T14:17:36.434Z,93221.64
2018-05-12T14:20:03.326Z,93226.06
2018-05-12T14:22:30.323Z,93238.53
2018-05-12T14:24:57.204Z,93246.50
2018-05-12T14:27:24.187Z,93259.70
2018-05-12T14:29:51.456Z,93253.02
2018-05-12T14:32:18.624Z,93267.23
2018-05-12T14:34:45.625Z,93268.86
2018-05-12T14:37:12.507Z,93278.03
2018-05-12T14:39:43.250Z,93272.75
2018-05-12T14:42:10.103Z,93272.25
2018-05-12T14:44:36.835Z,93269.40
2018-05-12T14:47:03.702Z,93271.13
2018-05-12T14:49:30.442Z,93270.22
2018-05-12T14:51:57.665Z,93270.75
2018-05-12T14:54:25.521Z,93272.63
2018-05-12T14:56:53.193Z,93273.89
2018-05-12T14:59:20.581Z,93270.15
2018-05-12T15:01:48.444Z,93274.41
2018-05-12T15:04:15.121Z,93275.14
2018-05-12T15:06:42.660Z,93268.20
2018-05-12T15:09:10.912Z,93267.12
2018-05-12T15:11:41.216Z,93265.39
2018-05-12T15:14:09.292Z,93267.13
2018-05-12T15:16:37.177Z,93277.35
2018-05-12T15:19:04.738Z,93274.64
2018-05-12T15:21:32.018Z,93279.63
2018-05-12T15:23:59.339Z,93278.63
2018-05-12T15:26:26.610Z,93273.28
2018-05-12T15:28:53.721Z,93268.67
2018-05-12T15:31:20.377Z,93264.88
2018-05-12T15:33:47.567Z,93266.67
2018-05-12T15:36:14.809Z,93264.30
2018-05-12T15:38:41.661Z,93273.95
2018-05-12T15:41:08.702Z,93276.56
2018-05-12T15:43:35.725Z,93276.64
2018-05-12T15:46:02.766Z,93279.73
2018-05-12T15:48:29.303Z,93269.59
2018-05-12T15:50:56.434Z,93261.28
2018-05-12T15:53:22.871Z,93263.47
2018-05-12T15:55:50.812Z,93265.26
2018-05-12T15:58:17.712Z,93265.61
2018-05-12T16:00:45.402Z,93278.39
2018-05-12T16:03:13.383Z,93274.45
2018-05-12T16:05:40.730Z,93273.33
2018-05-12T16:08:07.409Z,93276.36
2018-05-12T16:10:34.581Z,93279.53
2018-05-12T16:13:02.367Z,93274.88
2018-05-12T16:15:29.077Z,93278.64
2018-05-12T16:17:55.906Z,93277.16
2018-05-12T16:20:24.559Z,93282.92
2018-05-12T16:22:51.411Z,93286.72
2018-05-12T16:25:18.946Z,93289.81
2018-05-12T16:27:46.860Z,93297.28
2018-05-12T16:30:18.278Z,93301.62
2018-05-12T16:32:45.465Z,93305.97
2018-05-12T16:35:14.119Z,93307.40
2018-05-12T16:37:42.873Z,93311.25
2018-05-12T16:40:11.466Z,93314.26
2018-05-12T16:42:39.184Z,93321.28
2018-05-12T16:45:06.123Z,93314.46
2018-05-12T16:47:34.380Z,93314.53
2018-05-12T16:50:04.174Z,93324.02
2018-05-12T16:52:31.689Z,93320.34
2018-05-12T16:54:58.914Z,93321.73
2018-05-12T16:57:29.372Z,93325.59
2018-05-12T16:59:56.969Z,93325.13
2018-05-12T17:02:24.464Z,93323.93
2018-05-12T17:04:51.454Z,93324.28
2018-05-12T17:07:23.085Z,93324.22
2018-05-12T17:09:53.348Z,93322.06
2018-05-12T17:12:22.843Z,93325.55
2018-05-12T17:14:49.726Z,93324.58
2018-05-12T17:17:16.871Z,93337.23
2018-05-12T17:19:43.508Z,93332.43
2018-05-12T17:22:12.079Z,93344.73
2018-05-12T17:24:38.734Z,93337.64
2018-05-12T17:27:05.912Z,93334.86
2018-05-12T17:29:32.680Z,93343.92
2018-05-12T17:31:59.433Z,93343.09
2018-05-12T17:34:27.578Z,93344.33
2018-05-12T17:36:55.121Z,93344.87
2018-05-12T17:39:22.135Z,93353.75
2018-05-12T17:41:48.812Z,93359.41
2018-05-12T17:44:16.690Z,93359.06
2018-05-12T17:46:45.039Z,93368.11
2018-05-12T17:49:11.765Z,93365.00
2018-05-12T17:51:39.525Z,93373.23
2018-05-12T17:54:09.183Z,93370.60
2018-05-12T17:56:36.212Z,93376.16
2018-05-12T17:59:03.270Z,93380.73
2018-05-12T18:01:30.197Z,93383.67
2018-05-12T18:03:57.268Z,93381.91
2018-05-12T18:06:24.281Z,93394.62
2018-05-12T18:08:51.211Z,93392.32
2018-05-12T18:11:18.083Z,93389.83
2018-05-12T18:13:44.904Z,93388.05
2018-05-12T18:16:11.518Z,93385.03
2018-05-12T18:18:39.234Z,93387.31
2018-05-12T18:21:28.890Z,93385.97
2018-05-12T18:23:55.762Z,93385.69
2018-05-12T18:26:22.485Z,93392.20
2018-05-12T18:28:49.178Z,93395.38
2018-05-12T18:31:19.713Z,93399.50
2018-05-12T18:33:47.971Z,93403.76
2018-05-12T18:36:15.240Z,93414.86
2018-05-12T18:38:42.326Z,93417.09
2018-05-12T18:41:09.440Z,93415.16
2018-05-12T18:43:36.155Z,93418.19
2018-05-12T18:46:03.145Z,93416.30
2018-05-12T18:48:30.037Z,93420.17
2018-05-12T18:51:00.328Z,93424.16
2018-05-12T18:53:27.505Z,93417.15
2018-05-12T18:55:54.896Z,93421.19
2018-05-12T18:58:22.414Z,93423.89
2018-05-12T19:00:51.922Z,93419.97
2018-05-12T19:03:20.212Z,93423.04
2018-05-12T19:05:46.804Z,93420.44
2018-05-12T19:08:13.797Z,93415.05
2018-05-12T19:10:40.780Z,93413.86
2018-05-12T19:13:08.558Z,93402.45
2018-05-12T19:15:35.307Z,93399.69
2018-05-12T19:18:02.340Z,93396.30
2018-05-12T19:20:29.703Z,93385.55
2018-05-12T19:22:57.668Z,93381.82
2018-05-12T19:25:24.977Z,93371.67
2018-05-12T19:27:54.096Z,93362.45
2018-05-12T19:30:22.187Z,93359.51
2018-05-12T19:32:49.845Z,93361.75
2018-05-12T19:35:16.934Z,93360.74
2018-05-12T19:37:43.771Z,93372.02
2018-05-12T19:40:10.882Z,93361.45
2018-05-12T19:42:38.118Z,93364.96
2018-05-12T19:45:06.226Z,93356.80
2018-05-12T19:47:33.509Z,93358.58
2018-05-12T19:50:00.929Z,93361.79
2018-05-12T19:52:29.114Z,93361.19
2018-05-12T19:54:56.220Z,93354.23
2018-05-12T19:57:23.392Z,93350.44
2018-05-12T19:59:50.465Z,93357.44
2018-05-12T20:02:17.498Z,93354.13
2018-05-12T20:04:44.039Z,93352.83
2018-05-12T20:07:12.011Z,93359.70
2018-05-12T20:09:38.991Z,93363.02
2018-05-12T20:12:06.922Z,93365.92
2018-05-12T20:14:33.685Z,93358.50
2018-05-12T20:17:01.219Z,93361.11
2018-05-12T20:19:27.782Z,93355.14
2018-05-12T20:22:01.546Z,93357.34
2018-05-12T20:24:28.342Z,93348.91
2018-05-12T20:26:55.718Z,93339.07
2018-05-12T20:29:22.650Z,93338.77
2018-05-12T20:31:50.223Z,93340.97
2018-05-12T20:34:16.805Z,93346.89
2018-05-12T20:36:43.315Z,93352.75
2018-05-12T20:39:09.756Z,93355.95
2018-05-12T20:41:53.453Z,93359.69
2018-05-12T20:44:19.854Z,93364.00
2018-05-12T20:46:46.878Z,93363.02
2018-05-12T20:49:13.392Z,93364.28
2018-05-12T20:51:47.633Z,93364.84
2018-05-12T20:54:14.293Z,93361.38
2018-05-12T20:56:40.708Z,93359.06
2018-05-12T20:59:07.099Z,93362.34
2018-05-12T21:01:33.762Z,93356.80
2018-05-12T21:04:00.178Z,93359.02
2018-05-12T21:06:26.633Z,93362.75
2018-05-12T21:08:52.999Z,93370.41
2018-05-12T21:11:19.537Z,93382.84
2018-05-12T21:13:46.074Z,93381.99
2018-05-12T21:16:12.427Z,93377.37
2018-05-12T21:18:38.951Z,93368.34
2018-05-12T21:21:06.448Z,93369.97
2018-05-12T21:23:32.934Z,93364.08
2018-05-12T21:25:59.372Z,93378.94
2018-05-12T21:28:25.796Z,93377.41
2018-05-12T21:30:52.423Z,93384.00
2018-05-12T21:33:19.015Z,93375.84
2018-05-12T21:35:45.511Z,93381.23
2018-05-12T21:38:11.851Z,93384.32
2018-05-12T21:40:39.300Z,93385.06
2018-05-12T21:43:05.701Z,93386.72
2018-05-12T21:45:32.118Z,93385.91
2018-05-12T21:47:58.484Z,93393.48
2018-05-12T21:50:24.846Z,93390.98
2018-05-12T21:52:51.218Z,93399.52
2018-05-12T21:55:17.587Z,93386.73
2018-05-12T21:57:44.376Z,93388.03
2018-05-12T22:00:10.850Z,93384.64
2018-05-12T22:02:37.189Z,93376.79
2018-05-12T22:05:03.942Z,93379.39
2018-05-12T22:07:30.371Z,93390.02
2018-05-12T22:09:56.918Z,93382.69
2018-05-12T22:12:23.394Z,93383.16
2018-05-12T22:14:49.758Z,93395.03
2018-05-12T22:17:16.180Z,93394.61
2018-05-12T22:19:42.611Z,93392.15
2018-05-12T22:22:09.011Z,93384.46
2018-05-12T22:24:35.383Z,93369.48
2018-05-12T22:27:01.982Z,93357.98
2018-05-12T22:29:28.369Z,93352.84
2018-05-12T22:31:54.861Z,93365.31
2018-05-12T22:34:21.259Z,93368.30
2018-05-12T22:36:47.593Z,93366.31
2018-05-12T22:39:13.943Z,93377.63
2018-05-12T22:41:40.380Z,93361.20
2018-05-12T22:44:06.773Z,93361.25
2018-05-12T22:46:33.212Z,93357.69
2018-05-12T22:48:59.566Z,93365.61
2018-05-12T22:51:25.988Z,93368.66
2018-05-12T22:53:52.537Z,93373.46
2018-05-12T22:56:19.079Z,93373.02
2018-05-12T22:58:45.468Z,93363.59
2018-05-12T23:01:12.053Z,93359.09
2018-05-12T23:03:38.422Z,93367.56
2018-05-12T23:06:04.737Z,93366.06
2018-05-12T23:08:31.108Z,93368.70
2018-05-12T23:10:57.778Z,93373.67
2018-05-12T23:13:24.151Z,93367.16
2018-05-12T23:15:50.537Z,93374.60
2018-05-12T23:18:16.916Z,93380.56
2018-05-12T23:20:43.283Z,93378.50
2018-05-12T23:23:09.589Z,93371.00
2018-05-12T23:25:36.074Z,93367.33
2018-05-12T23:28:02.617Z,93365.13
2018-05-12T23:30:29.156Z,93367.70
2018-05-12T23:32:55.508Z,93369.14
2018-05-12T23:35:22.024Z,93364.24
2018-05-12T23:37:48.451Z,93363.00
2018-05-12T23:40:14.883Z,93357.55
2018-05-12T23:42:41.233Z,93346.25
2018-05-12T23:45:07.571Z,93339.12
2018-05-12T23:47:33.940Z,93331.89
2018-05-12T23:50:00.354Z,93333.15
2018-05-12T23:52:27.061Z,93332.97
2018-05-12T23:54:53.596Z,93336.88
2018-05-12T23:57:19.990Z,93333.95
2018-05-12T23:59:46.464Z,93335.34
